Terminal Aerodrome Forecast
Issued by NWS

Home | Current Version | Previous Version | Text Only | Print | Product List | Glossary On
Versions: 1 2 3 4 5 6 7 8 9 10 11 12 13 14 15
000
FTUS45 KABQ 292300
TAFAEG
TAF
KAEG 292338Z 3000/3024 VRB06KT P6SM FEW110 SCT200
     FM300200 13011KT P6SM FEW110 SCT200
     FM300800 VRB06KT P6SM BKN200
     FM301930 24011G17KT P6SM SCT120 BKN200=

USA.gov is the U.S. government's official web portal to all federal, state and local government web resources and services.